sensor_id;sensor_type;location;lat;lon;timestamp;pressure;altitude;pressure_sealevel;temperature;humidity
24620;BME280;12763;55.802;37.404;2022-07-29T00:00:53;99535.22;;;19.29;82.85
24620;BME280;12763;55.802;37.404;2022-07-29T00:03:19;99541.72;;;19.50;82.68
24620;BME280;12763;55.802;37.404;2022-07-29T00:05:45;99533.25;;;19.35;83.07
24620;BME280;12763;55.802;37.404;2022-07-29T00:08:11;99534.78;;;19.93;81.36
24620;BME280;12763;55.802;37.404;2022-07-29T00:10:37;99536.72;;;19.67;81.99
24620;BME280;12763;55.802;37.404;2022-07-29T00:13:04;99538.41;;;19.73;82.07
24620;BME280;12763;55.802;37.404;2022-07-29T00:15:30;99533.38;;;19.90;81.00
24620;BME280;12763;55.802;37.404;2022-07-29T00:17:56;99542.03;;;20.14;80.06
24620;BME280;12763;55.802;37.404;2022-07-29T00:20:22;99546.75;;;19.53;80.81
24620;BME280;12763;55.802;37.404;2022-07-29T00:22:48;99544.78;;;19.39;81.85
24620;BME280;12763;55.802;37.404;2022-07-29T00:25:14;99542.56;;;19.46;81.73
24620;BME280;12763;55.802;37.404;2022-07-29T00:27:40;99547.59;;;19.59;81.73
24620;BME280;12763;55.802;37.404;2022-07-29T00:30:07;99544.56;;;19.65;81.01
24620;BME280;12763;55.802;37.404;2022-07-29T00:32:33;99547.03;;;19.47;81.67
24620;BME280;12763;55.802;37.404;2022-07-29T00:34:59;99550.16;;;19.75;80.79
24620;BME280;12763;55.802;37.404;2022-07-29T00:37:44;99544.50;;;19.50;80.65
24620;BME280;12763;55.802;37.404;2022-07-29T00:40:10;99549.72;;;19.21;81.80
24620;BME280;12763;55.802;37.404;2022-07-29T00:42:48;99551.78;;;19.46;81.46
24620;BME280;12763;55.802;37.404;2022-07-29T00:45:15;99552.75;;;19.05;82.02
24620;BME280;12763;55.802;37.404;2022-07-29T00:47:41;99559.31;;;18.78;83.16
24620;BME280;12763;55.802;37.404;2022-07-29T00:50:09;99551.38;;;19.12;82.78
24620;BME280;12763;55.802;37.404;2022-07-29T00:52:37;99560.59;;;19.08;82.99
24620;BME280;12763;55.802;37.404;2022-07-29T00:55:07;99556.75;;;19.29;82.18
24620;BME280;12763;55.802;37.404;2022-07-29T00:57:35;99557.72;;;18.93;83.30
24620;BME280;12763;55.802;37.404;2022-07-29T01:00:05;99554.78;;;19.24;82.06
24620;BME280;12763;55.802;37.404;2022-07-29T01:02:32;99559.34;;;19.41;81.60
24620;BME280;12763;55.802;37.404;2022-07-29T01:04:58;99559.06;;;19.47;80.55
24620;BME280;12763;55.802;37.404;2022-07-29T01:07:26;99556.53;;;19.41;81.48
24620;BME280;12763;55.802;37.404;2022-07-29T01:09:53;99573.97;;;19.06;82.38
24620;BME280;12763;55.802;37.404;2022-07-29T01:12:23;99568.66;;;18.99;83.86
24620;BME280;12763;55.802;37.404;2022-07-29T01:14:50;99567.63;;;19.25;82.48
24620;BME280;12763;55.802;37.404;2022-07-29T01:17:21;99561.97;;;19.05;83.07
24620;BME280;12763;55.802;37.404;2022-07-29T01:29:06;99570.16;;;19.22;83.59
24620;BME280;12763;55.802;37.404;2022-07-29T01:37:15;99566.44;;;19.06;83.81
24620;BME280;12763;55.802;37.404;2022-07-29T01:39:46;99572.34;;;19.10;83.77
24620;BME280;12763;55.802;37.404;2022-07-29T01:44:57;99569.75;;;18.93;85.07
24620;BME280;12763;55.802;37.404;2022-07-29T01:47:33;99569.59;;;19.25;84.95
24620;BME280;12763;55.802;37.404;2022-07-29T01:50:01;99569.84;;;19.18;84.12
24620;BME280;12763;55.802;37.404;2022-07-29T01:52:38;99573.41;;;18.99;85.08
24620;BME280;12763;55.802;37.404;2022-07-29T01:55:13;99570.66;;;19.09;84.70
24620;BME280;12763;55.802;37.404;2022-07-29T01:57:40;99571.53;;;18.62;86.49
24620;BME280;12763;55.802;37.404;2022-07-29T02:00:08;99574.94;;;18.69;86.41
24620;BME280;12763;55.802;37.404;2022-07-29T02:02:40;99575.41;;;18.56;86.98
24620;BME280;12763;55.802;37.404;2022-07-29T02:05:10;99584.19;;;18.75;86.96
24620;BME280;12763;55.802;37.404;2022-07-29T02:07:42;99567.97;;;18.72;86.95
24620;BME280;12763;55.802;37.404;2022-07-29T02:10:10;99569.91;;;18.71;87.69
24620;BME280;12763;55.802;37.404;2022-07-29T02:12:38;99569.84;;;19.13;86.34
24620;BME280;12763;55.802;37.404;2022-07-29T02:15:27;99574.81;;;19.06;85.84
24620;BME280;12763;55.802;37.404;2022-07-29T02:17:58;99569.97;;;18.87;85.85
24620;BME280;12763;55.802;37.404;2022-07-29T02:20:26;99576.06;;;18.73;86.74
24620;BME280;12763;55.802;37.404;2022-07-29T02:22:53;99571.84;;;18.34;88.44
24620;BME280;12763;55.802;37.404;2022-07-29T02:25:21;99572.56;;;18.98;86.84
24620;BME280;12763;55.802;37.404;2022-07-29T02:27:50;99579.66;;;19.21;85.41
24620;BME280;12763;55.802;37.404;2022-07-29T02:30:17;99568.94;;;19.03;84.81
24620;BME280;12763;55.802;37.404;2022-07-29T02:32:44;99578.31;;;18.71;85.95
24620;BME280;12763;55.802;37.404;2022-07-29T02:35:14;99585.91;;;18.44;87.45
24620;BME280;12763;55.802;37.404;2022-07-29T02:37:43;99587.84;;;18.39;87.76
24620;BME280;12763;55.802;37.404;2022-07-29T02:40:14;99588.69;;;18.81;86.59
24620;BME280;12763;55.802;37.404;2022-07-29T02:42:42;99572.75;;;18.82;85.72
24620;BME280;12763;55.802;37.404;2022-07-29T02:45:10;99578.44;;;18.97;85.55
24620;BME280;12763;55.802;37.404;2022-07-29T02:47:40;99583.06;;;19.33;84.90
24620;BME280;12763;55.802;37.404;2022-07-29T02:50:12;99572.25;;;19.62;83.54
24620;BME280;12763;55.802;37.404;2022-07-29T02:55:40;99577.28;;;19.55;82.33
24620;BME280;12763;55.802;37.404;2022-07-29T02:58:19;99580.94;;;19.80;82.26
24620;BME280;12763;55.802;37.404;2022-07-29T03:00:49;99570.91;;;19.79;81.23
24620;BME280;12763;55.802;37.404;2022-07-29T03:03:19;99575.91;;;19.67;81.13
24620;BME280;12763;55.802;37.404;2022-07-29T03:05:47;99571.94;;;19.58;81.04
24620;BME280;12763;55.802;37.404;2022-07-29T03:08:14;99570.78;;;19.39;81.35
24620;BME280;12763;55.802;37.404;2022-07-29T03:10:44;99576.41;;;19.44;81.34
24620;BME280;12763;55.802;37.404;2022-07-29T03:13:12;99578.38;;;19.54;80.46
24620;BME280;12763;55.802;37.404;2022-07-29T03:15:39;99571.91;;;19.38;80.72
24620;BME280;12763;55.802;37.404;2022-07-29T03:18:07;99575.34;;;19.75;79.02
24620;BME280;12763;55.802;37.404;2022-07-29T03:20:34;99578.72;;;20.03;77.89
24620;BME280;12763;55.802;37.404;2022-07-29T03:23:00;99580.97;;;20.06;77.47
24620;BME280;12763;55.802;37.404;2022-07-29T03:25:26;99588.00;;;19.93;76.94
24620;BME280;12763;55.802;37.404;2022-07-29T03:27:52;99578.09;;;19.45;79.18
24620;BME280;12763;55.802;37.404;2022-07-29T03:30:18;99582.56;;;19.46;79.16
24620;BME280;12763;55.802;37.404;2022-07-29T03:32:44;99585.09;;;19.53;78.68
24620;BME280;12763;55.802;37.404;2022-07-29T03:35:11;99574.53;;;19.03;81.10
24620;BME280;12763;55.802;37.404;2022-07-29T03:37:37;99573.66;;;19.59;79.26
24620;BME280;12763;55.802;37.404;2022-07-29T03:40:05;99571.16;;;19.78;78.66
24620;BME280;12763;55.802;37.404;2022-07-29T03:42:33;99570.31;;;19.77;78.30
24620;BME280;12763;55.802;37.404;2022-07-29T03:45:07;99572.88;;;19.99;77.96
24620;BME280;12763;55.802;37.404;2022-07-29T03:47:41;99583.25;;;20.29;77.44
24620;BME280;12763;55.802;37.404;2022-07-29T03:50:10;99581.03;;;20.26;77.32
24620;BME280;12763;55.802;37.404;2022-07-29T03:52:37;99582.97;;;20.25;77.42
24620;BME280;12763;55.802;37.404;2022-07-29T03:55:03;99589.97;;;20.33;76.78
24620;BME280;12763;55.802;37.404;2022-07-29T03:57:30;99590.25;;;20.46;76.47
24620;BME280;12763;55.802;37.404;2022-07-29T03:59:58;99591.34;;;20.71;75.67
24620;BME280;12763;55.802;37.404;2022-07-29T04:02:26;99595.03;;;20.46;75.82
24620;BME280;12763;55.802;37.404;2022-07-29T04:04:52;99602.28;;;20.52;75.99
24620;BME280;12763;55.802;37.404;2022-07-29T04:07:18;99591.63;;;20.69;75.31
24620;BME280;12763;55.802;37.404;2022-07-29T04:09:44;99593.84;;;20.72;74.55
24620;BME280;12763;55.802;37.404;2022-07-29T04:12:10;99593.25;;;20.85;74.15
24620;BME280;12763;55.802;37.404;2022-07-29T04:14:36;99591.63;;;20.69;74.20
24620;BME280;12763;55.802;37.404;2022-07-29T04:17:03;99595.25;;;20.85;73.81
24620;BME280;12763;55.802;37.404;2022-07-29T04:19:30;99598.84;;;21.00;73.56
24620;BME280;12763;55.802;37.404;2022-07-29T04:21:58;99602.16;;;21.23;72.88
24620;BME280;12763;55.802;37.404;2022-07-29T04:24:24;99606.13;;;21.06;72.79
24620;BME280;12763;55.802;37.404;2022-07-29T04:26:51;99595.44;;;21.14;72.73
24620;BME280;12763;55.802;37.404;2022-07-29T04:29:17;99601.06;;;21.14;72.32
24620;BME280;12763;55.802;37.404;2022-07-29T04:31:43;99603.50;;;21.35;71.71
24620;BME280;12763;55.802;37.404;2022-07-29T04:34:10;99624.09;;;21.00;71.61
24620;BME280;12763;55.802;37.404;2022-07-29T04:36:36;99608.69;;;20.93;72.07
24620;BME280;12763;55.802;37.404;2022-07-29T04:39:02;99607.75;;;21.28;70.48
24620;BME280;12763;55.802;37.404;2022-07-29T04:41:28;99603.31;;;20.96;71.06
24620;BME280;12763;55.802;37.404;2022-07-29T04:43:54;99614.72;;;21.35;70.34
24620;BME280;12763;55.802;37.404;2022-07-29T04:46:20;99615.47;;;21.56;69.27
24620;BME280;12763;55.802;37.404;2022-07-29T04:48:46;99621.47;;;21.34;69.81
24620;BME280;12763;55.802;37.404;2022-07-29T04:51:16;99621.00;;;21.12;69.84
24620;BME280;12763;55.802;37.404;2022-07-29T04:53:42;99623.81;;;20.97;70.40
24620;BME280;12763;55.802;37.404;2022-07-29T04:56:08;99622.59;;;21.33;69.69
24620;BME280;12763;55.802;37.404;2022-07-29T04:58:35;99620.72;;;20.93;71.02
24620;BME280;12763;55.802;37.404;2022-07-29T05:01:01;99626.03;;;21.10;70.36
24620;BME280;12763;55.802;37.404;2022-07-29T05:03:27;99618.84;;;21.53;69.28
24620;BME280;12763;55.802;37.404;2022-07-29T05:05:53;99619.53;;;21.25;69.77
24620;BME280;12763;55.802;37.404;2022-07-29T05:08:19;99617.75;;;21.54;68.97
24620;BME280;12763;55.802;37.404;2022-07-29T05:10:45;99618.56;;;21.54;68.47
24620;BME280;12763;55.802;37.404;2022-07-29T05:13:11;99614.19;;;21.82;67.99
24620;BME280;12763;55.802;37.404;2022-07-29T05:15:37;99606.72;;;22.45;66.55
24620;BME280;12763;55.802;37.404;2022-07-29T05:18:03;99616.50;;;22.19;66.94
24620;BME280;12763;55.802;37.404;2022-07-29T05:20:30;99614.44;;;22.30;66.54
24620;BME280;12763;55.802;37.404;2022-07-29T05:23:00;99614.63;;;22.04;66.81
24620;BME280;12763;55.802;37.404;2022-07-29T05:25:27;99617.84;;;22.27;66.79
24620;BME280;12763;55.802;37.404;2022-07-29T05:27:54;99616.13;;;22.31;66.21
24620;BME280;12763;55.802;37.404;2022-07-29T05:30:21;99621.97;;;22.39;65.79
24620;BME280;12763;55.802;37.404;2022-07-29T05:32:47;99612.78;;;21.85;66.95
24620;BME280;12763;55.802;37.404;2022-07-29T05:35:14;99619.63;;;22.12;66.26
24620;BME280;12763;55.802;37.404;2022-07-29T05:37:40;99617.03;;;22.21;65.66
24620;BME280;12763;55.802;37.404;2022-07-29T05:40:07;99615.63;;;22.23;65.17
24620;BME280;12763;55.802;37.404;2022-07-29T05:42:34;99611.78;;;22.14;65.73
24620;BME280;12763;55.802;37.404;2022-07-29T05:45:01;99612.34;;;22.45;64.77
24620;BME280;12763;55.802;37.404;2022-07-29T05:47:29;99612.94;;;22.76;64.10
24620;BME280;12763;55.802;37.404;2022-07-29T05:49:56;99607.22;;;22.52;64.29
24620;BME280;12763;55.802;37.404;2022-07-29T05:52:22;99612.72;;;22.67;63.79
24620;BME280;12763;55.802;37.404;2022-07-29T05:54:48;99603.88;;;23.08;63.22
24620;BME280;12763;55.802;37.404;2022-07-29T05:57:19;99595.34;;;23.36;62.41
24620;BME280;12763;55.802;37.404;2022-07-29T05:59:45;99608.94;;;23.77;61.26
24620;BME280;12763;55.802;37.404;2022-07-29T06:02:11;99606.34;;;23.80;60.42
24620;BME280;12763;55.802;37.404;2022-07-29T06:04:37;99609.13;;;23.62;59.96
24620;BME280;12763;55.802;37.404;2022-07-29T06:07:03;99611.47;;;23.07;60.61
24620;BME280;12763;55.802;37.404;2022-07-29T06:09:29;99607.22;;;23.10;60.47
24620;BME280;12763;55.802;37.404;2022-07-29T06:11:55;99610.94;;;22.48;61.67
24620;BME280;12763;55.802;37.404;2022-07-29T06:14:21;99612.78;;;22.91;60.10
24620;BME280;12763;55.802;37.404;2022-07-29T06:16:47;99622.41;;;22.85;59.43
24620;BME280;12763;55.802;37.404;2022-07-29T06:19:13;99614.81;;;23.09;60.34
24620;BME280;12763;55.802;37.404;2022-07-29T06:21:43;99614.06;;;23.27;59.33
24620;BME280;12763;55.802;37.404;2022-07-29T06:24:10;99600.50;;;23.53;59.18
24620;BME280;12763;55.802;37.404;2022-07-29T06:26:38;99607.72;;;24.02;57.88
24620;BME280;12763;55.802;37.404;2022-07-29T06:29:04;99602.25;;;23.91;56.74
24620;BME280;12763;55.802;37.404;2022-07-29T06:31:30;99601.38;;;24.28;56.90
24620;BME280;12763;55.802;37.404;2022-07-29T06:33:56;99597.97;;;24.31;56.32
24620;BME280;12763;55.802;37.404;2022-07-29T06:36:22;99599.44;;;24.10;56.55
24620;BME280;12763;55.802;37.404;2022-07-29T06:38:48;99599.09;;;24.30;55.74
24620;BME280;12763;55.802;37.404;2022-07-29T06:41:14;99599.97;;;24.12;55.78
24620;BME280;12763;55.802;37.404;2022-07-29T06:43:42;99590.28;;;24.18;55.34
24620;BME280;12763;55.802;37.404;2022-07-29T06:46:14;99593.25;;;24.27;55.53
24620;BME280;12763;55.802;37.404;2022-07-29T06:48:41;99590.88;;;24.66;53.89
24620;BME280;12763;55.802;37.404;2022-07-29T06:51:09;99588.88;;;24.67;53.31
24620;BME280;12763;55.802;37.404;2022-07-29T06:53:35;99593.31;;;24.40;54.65
24620;BME280;12763;55.802;37.404;2022-07-29T06:56:03;99600.50;;;24.79;54.59
24620;BME280;12763;55.802;37.404;2022-07-29T06:58:29;99599.50;;;24.88;53.66
24620;BME280;12763;55.802;37.404;2022-07-29T07:00:57;99587.94;;;24.58;53.96
24620;BME280;12763;55.802;37.404;2022-07-29T07:03:24;99593.44;;;24.30;54.56
24620;BME280;12763;55.802;37.404;2022-07-29T07:05:52;99587.38;;;24.55;53.50
24620;BME280;12763;55.802;37.404;2022-07-29T07:08:19;99591.63;;;24.39;52.84
24620;BME280;12763;55.802;37.404;2022-07-29T07:10:45;99591.03;;;24.05;53.55
24620;BME280;12763;55.802;37.404;2022-07-29T07:13:12;99599.25;;;23.83;53.66
24620;BME280;12763;55.802;37.404;2022-07-29T07:15:38;99596.31;;;24.12;52.74
24620;BME280;12763;55.802;37.404;2022-07-29T07:18:05;99599.31;;;24.34;52.65
24620;BME280;12763;55.802;37.404;2022-07-29T07:20:35;99598.81;;;24.78;51.56
24620;BME280;12763;55.802;37.404;2022-07-29T07:23:01;99594.72;;;25.16;50.92
24620;BME280;12763;55.802;37.404;2022-07-29T07:25:27;99600.81;;;24.13;51.39
24620;BME280;12763;55.802;37.404;2022-07-29T07:27:53;99596.31;;;23.51;52.65
24620;BME280;12763;55.802;37.404;2022-07-29T07:30:20;99594.25;;;23.80;52.99
24620;BME280;12763;55.802;37.404;2022-07-29T07:32:46;99595.28;;;23.84;52.93
24620;BME280;12763;55.802;37.404;2022-07-29T07:35:12;99608.09;;;24.32;51.85
24620;BME280;12763;55.802;37.404;2022-07-29T07:37:38;99613.19;;;24.49;51.32
24620;BME280;12763;55.802;37.404;2022-07-29T07:40:07;99603.97;;;24.43;51.46
24620;BME280;12763;55.802;37.404;2022-07-29T07:42:33;99612.16;;;24.59;50.93
24620;BME280;12763;55.802;37.404;2022-07-29T07:44:59;99608.53;;;24.39;51.79
24620;BME280;12763;55.802;37.404;2022-07-29T07:47:25;99608.44;;;24.44;50.66
24620;BME280;12763;55.802;37.404;2022-07-29T07:49:52;99598.47;;;24.84;49.60
24620;BME280;12763;55.802;37.404;2022-07-29T07:52:20;99610.91;;;24.65;49.19
24620;BME280;12763;55.802;37.404;2022-07-29T07:54:47;99613.22;;;24.95;48.31
24620;BME280;12763;55.802;37.404;2022-07-29T07:57:14;99609.69;;;25.17;47.63
24620;BME280;12763;55.802;37.404;2022-07-29T07:59:40;99624.19;;;25.92;46.83
24620;BME280;12763;55.802;37.404;2022-07-29T08:02:07;99610.28;;;25.95;46.25
24620;BME280;12763;55.802;37.404;2022-07-29T08:04:33;99635.22;;;25.52;46.15
24620;BME280;12763;55.802;37.404;2022-07-29T08:07:00;99624.34;;;25.19;46.92
24620;BME280;12763;55.802;37.404;2022-07-29T08:09:27;99623.13;;;24.92;46.93
24620;BME280;12763;55.802;37.404;2022-07-29T08:11:54;99623.25;;;25.01;47.02
24620;BME280;12763;55.802;37.404;2022-07-29T08:14:20;99629.28;;;25.54;45.83
24620;BME280;12763;55.802;37.404;2022-07-29T08:16:46;99620.03;;;25.89;44.56
24620;BME280;12763;55.802;37.404;2022-07-29T08:19:13;99614.13;;;26.35;43.13
24620;BME280;12763;55.802;37.404;2022-07-29T08:21:39;99613.97;;;26.32;43.97
24620;BME280;12763;55.802;37.404;2022-07-29T08:24:05;99624.59;;;26.12;44.22
24620;BME280;12763;55.802;37.404;2022-07-29T08:26:50;99629.19;;;24.99;45.11
24620;BME280;12763;55.802;37.404;2022-07-29T08:29:16;99627.47;;;25.31;46.01
24620;BME280;12763;55.802;37.404;2022-07-29T08:31:42;99621.09;;;25.25;45.80
24620;BME280;12763;55.802;37.404;2022-07-29T08:34:08;99614.84;;;25.55;45.35
24620;BME280;12763;55.802;37.404;2022-07-29T08:36:34;99604.66;;;25.41;46.11
24620;BME280;12763;55.802;37.404;2022-07-29T08:39:01;99619.47;;;25.51;45.28
24620;BME280;12763;55.802;37.404;2022-07-29T08:41:27;99609.94;;;25.47;45.82
24620;BME280;12763;55.802;37.404;2022-07-29T08:43:53;99617.53;;;25.60;45.83
24620;BME280;12763;55.802;37.404;2022-07-29T08:46:20;99622.13;;;25.16;45.90
24620;BME280;12763;55.802;37.404;2022-07-29T08:48:47;99610.53;;;25.58;44.75
24620;BME280;12763;55.802;37.404;2022-07-29T08:51:15;99619.53;;;25.74;44.22
24620;BME280;12763;55.802;37.404;2022-07-29T08:53:42;99598.59;;;26.10;43.32
24620;BME280;12763;55.802;37.404;2022-07-29T08:56:13;99612.72;;;26.24;43.16
24620;BME280;12763;55.802;37.404;2022-07-29T08:58:40;99622.13;;;25.84;44.17
24620;BME280;12763;55.802;37.404;2022-07-29T09:01:07;99614.34;;;26.03;43.79
24620;BME280;12763;55.802;37.404;2022-07-29T09:03:36;99613.34;;;25.72;44.93
24620;BME280;12763;55.802;37.404;2022-07-29T09:06:03;99622.88;;;25.21;45.47
24620;BME280;12763;55.802;37.404;2022-07-29T09:08:31;99615.88;;;25.59;44.81
24620;BME280;12763;55.802;37.404;2022-07-29T09:10:58;99622.38;;;25.60;44.88
24620;BME280;12763;55.802;37.404;2022-07-29T09:13:26;99628.72;;;25.38;45.45
24620;BME280;12763;55.802;37.404;2022-07-29T09:15:52;99612.94;;;25.78;44.52
24620;BME280;12763;55.802;37.404;2022-07-29T09:18:39;99603.28;;;26.51;43.69
24620;BME280;12763;55.802;37.404;2022-07-29T09:21:07;99616.09;;;26.48;43.37
24620;BME280;12763;55.802;37.404;2022-07-29T09:24:12;99628.63;;;25.84;43.25
24620;BME280;12763;55.802;37.404;2022-07-29T09:26:43;99615.47;;;26.38;43.99
24620;BME280;12763;55.802;37.404;2022-07-29T09:29:18;99607.19;;;26.41;42.80
24620;BME280;12763;55.802;37.404;2022-07-29T09:31:49;99600.06;;;26.08;43.62
24620;BME280;12763;55.802;37.404;2022-07-29T09:34:27;99618.56;;;26.27;43.03
24620;BME280;12763;55.802;37.404;2022-07-29T09:36:57;99633.31;;;25.89;44.43
24620;BME280;12763;55.802;37.404;2022-07-29T09:39:28;99629.28;;;25.67;43.15
24620;BME280;12763;55.802;37.404;2022-07-29T09:41:56;99615.25;;;26.25;42.37
24620;BME280;12763;55.802;37.404;2022-07-29T09:44:23;99628.69;;;26.64;41.88
24620;BME280;12763;55.802;37.404;2022-07-29T09:47:02;99613.06;;;27.20;39.90
24620;BME280;12763;55.802;37.404;2022-07-29T09:49:32;99616.06;;;27.23;40.19
24620;BME280;12763;55.802;37.404;2022-07-29T09:52:09;99621.16;;;26.82;39.20
24620;BME280;12763;55.802;37.404;2022-07-29T09:54:37;99633.81;;;25.91;41.86
24620;BME280;12763;55.802;37.404;2022-07-29T09:57:05;99639.66;;;26.44;41.55
24620;BME280;12763;55.802;37.404;2022-07-29T09:59:32;99621.41;;;27.25;40.22
24620;BME280;12763;55.802;37.404;2022-07-29T10:01:59;99624.09;;;27.69;38.90
24620;BME280;12763;55.802;37.404;2022-07-29T10:04:37;99635.34;;;26.68;38.25
24620;BME280;12763;55.802;37.404;2022-07-29T10:07:03;99635.28;;;26.60;39.32
24620;BME280;12763;55.802;37.404;2022-07-29T10:09:31;99618.38;;;25.75;40.62
24620;BME280;12763;55.802;37.404;2022-07-29T10:12:12;99629.97;;;26.36;40.76
24620;BME280;12763;55.802;37.404;2022-07-29T10:14:42;99618.31;;;26.60;38.89
24620;BME280;12763;55.802;37.404;2022-07-29T10:17:09;99623.59;;;26.97;39.08
24620;BME280;12763;55.802;37.404;2022-07-29T10:19:37;99619.81;;;27.89;37.47
24620;BME280;12763;55.802;37.404;2022-07-29T10:22:06;99611.88;;;28.68;36.55
24620;BME280;12763;55.802;37.404;2022-07-29T10:24:32;99619.88;;;28.49;37.43
24620;BME280;12763;55.802;37.404;2022-07-29T10:27:01;99626.31;;;27.81;37.61
24620;BME280;12763;55.802;37.404;2022-07-29T10:29:28;99631.66;;;27.91;37.27
24620;BME280;12763;55.802;37.404;2022-07-29T10:43:24;99613.81;;;27.03;39.73
24620;BME280;12763;55.802;37.404;2022-07-29T10:45:56;99623.03;;;26.42;38.98
24620;BME280;12763;55.802;37.404;2022-07-29T10:48:23;99602.78;;;27.02;39.65
24620;BME280;12763;55.802;37.404;2022-07-29T10:51:00;99597.00;;;28.11;37.71
24620;BME280;12763;55.802;37.404;2022-07-29T10:53:52;99605.44;;;27.85;37.74
24620;BME280;12763;55.802;37.404;2022-07-29T10:56:29;99605.72;;;29.30;36.03
24620;BME280;12763;55.802;37.404;2022-07-29T11:01:45;99615.53;;;29.99;34.77
24620;BME280;12763;55.802;37.404;2022-07-29T11:04:12;99609.09;;;29.52;35.53
24620;BME280;12763;55.802;37.404;2022-07-29T11:09:22;99613.69;;;31.91;31.94
24620;BME280;12763;55.802;37.404;2022-07-29T11:11:48;99614.38;;;31.28;32.38
24620;BME280;12763;55.802;37.404;2022-07-29T11:14:15;99612.94;;;30.89;33.71
24620;BME280;12763;55.802;37.404;2022-07-29T11:17:03;99611.53;;;31.28;32.40
24620;BME280;12763;55.802;37.404;2022-07-29T11:19:30;99612.41;;;30.75;33.13
24620;BME280;12763;55.802;37.404;2022-07-29T11:21:56;99613.34;;;28.40;35.87
24620;BME280;12763;55.802;37.404;2022-07-29T11:24:25;99618.19;;;27.49;36.83
24620;BME280;12763;55.802;37.404;2022-07-29T11:27:15;99621.16;;;27.13;36.24
24620;BME280;12763;55.802;37.404;2022-07-29T11:29:50;99621.81;;;27.10;37.54
24620;BME280;12763;55.802;37.404;2022-07-29T11:32:18;99609.28;;;27.33;37.52
24620;BME280;12763;55.802;37.404;2022-07-29T11:34:46;99610.44;;;27.71;38.36
24620;BME280;12763;55.802;37.404;2022-07-29T11:37:13;99614.78;;;28.97;36.58
24620;BME280;12763;55.802;37.404;2022-07-29T11:47:22;99620.84;;;26.83;40.61
24620;BME280;12763;55.802;37.404;2022-07-29T11:49:48;99625.47;;;26.57;41.02
24620;BME280;12763;55.802;37.404;2022-07-29T11:52:17;99630.56;;;26.91;40.12
24620;BME280;12763;55.802;37.404;2022-07-29T11:54:44;99618.53;;;27.16;39.52
24620;BME280;12763;55.802;37.404;2022-07-29T11:57:11;99621.59;;;27.37;39.21
24620;BME280;12763;55.802;37.404;2022-07-29T11:59:41;99618.25;;;29.58;36.47
24620;BME280;12763;55.802;37.404;2022-07-29T12:02:08;99607.63;;;30.67;35.13
24620;BME280;12763;55.802;37.404;2022-07-29T12:04:55;99610.75;;;30.33;34.74
24620;BME280;12763;55.802;37.404;2022-07-29T12:07:30;99607.75;;;29.03;36.52
24620;BME280;12763;55.802;37.404;2022-07-29T12:09:56;99602.28;;;28.90;37.35
24620;BME280;12763;55.802;37.404;2022-07-29T12:12:22;99607.19;;;28.38;37.73
24620;BME280;12763;55.802;37.404;2022-07-29T12:14:48;99602.66;;;28.37;37.84
24620;BME280;12763;55.802;37.404;2022-07-29T12:17:30;99607.19;;;28.38;37.87
24620;BME280;12763;55.802;37.404;2022-07-29T12:19:58;99603.84;;;28.10;37.98
24620;BME280;12763;55.802;37.404;2022-07-29T12:22:45;99594.00;;;28.16;39.62
24620;BME280;12763;55.802;37.404;2022-07-29T12:25:14;99594.72;;;29.78;36.51
24620;BME280;12763;55.802;37.404;2022-07-29T12:27:42;99597.91;;;29.85;35.78
24620;BME280;12763;55.802;37.404;2022-07-29T12:30:14;99601.41;;;29.53;35.92
24620;BME280;12763;55.802;37.404;2022-07-29T12:32:46;99600.09;;;29.04;36.70
24620;BME280;12763;55.802;37.404;2022-07-29T12:35:13;99596.19;;;29.17;36.66
24620;BME280;12763;55.802;37.404;2022-07-29T12:37:41;99593.47;;;28.57;36.68
24620;BME280;12763;55.802;37.404;2022-07-29T12:40:10;99591.50;;;28.49;36.94
24620;BME280;12763;55.802;37.404;2022-07-29T12:42:36;99593.19;;;28.33;37.20
24620;BME280;12763;55.802;37.404;2022-07-29T12:45:03;99589.34;;;30.35;34.48
24620;BME280;12763;55.802;37.404;2022-07-29T12:47:30;99596.44;;;31.27;33.30
24620;BME280;12763;55.802;37.404;2022-07-29T12:50:13;99601.94;;;31.81;31.91
24620;BME280;12763;55.802;37.404;2022-07-29T12:52:44;99589.94;;;33.38;30.56
24620;BME280;12763;55.802;37.404;2022-07-29T12:55:11;99604.47;;;33.61;29.90
24620;BME280;12763;55.802;37.404;2022-07-29T13:00:13;99594.44;;;31.40;32.33
24620;BME280;12763;55.802;37.404;2022-07-29T13:02:40;99586.00;;;32.56;30.87
24620;BME280;12763;55.802;37.404;2022-07-29T13:05:08;99601.94;;;33.91;29.53
24620;BME280;12763;55.802;37.404;2022-07-29T13:07:35;99600.53;;;33.53;29.79
24620;BME280;12763;55.802;37.404;2022-07-29T13:10:18;99591.00;;;31.47;31.35
24620;BME280;12763;55.802;37.404;2022-07-29T13:13:14;99598.28;;;30.04;33.33
24620;BME280;12763;55.802;37.404;2022-07-29T13:15:42;99586.69;;;31.28;31.78
24620;BME280;12763;55.802;37.404;2022-07-29T13:18:30;99593.56;;;30.50;32.31
24620;BME280;12763;55.802;37.404;2022-07-29T13:21:10;99599.25;;;29.88;32.85
24620;BME280;12763;55.802;37.404;2022-07-29T13:23:37;99587.13;;;28.60;34.73
24620;BME280;12763;55.802;37.404;2022-07-29T13:26:07;99589.16;;;30.40;32.61
24620;BME280;12763;55.802;37.404;2022-07-29T13:28:33;99595.25;;;32.25;30.67
24620;BME280;12763;55.802;37.404;2022-07-29T13:31:00;99586.53;;;30.68;32.53
24620;BME280;12763;55.802;37.404;2022-07-29T13:33:26;99592.16;;;29.94;33.35
24620;BME280;12763;55.802;37.404;2022-07-29T13:35:52;99589.16;;;29.61;33.82
24620;BME280;12763;55.802;37.404;2022-07-29T13:38:18;99593.16;;;30.18;32.72
24620;BME280;12763;55.802;37.404;2022-07-29T13:40:44;99588.94;;;30.78;32.30
24620;BME280;12763;55.802;37.404;2022-07-29T13:43:10;99593.84;;;31.71;30.95
24620;BME280;12763;55.802;37.404;2022-07-29T13:45:36;99584.19;;;33.07;29.65